sensor_id;sensor_type;location;lat;lon;timestamp;pressure;altitude;pressure_sealevel;temperature;humidity
9784;BME280;4931;44.874;-1.092;2023-05-20T00:00:50;101687.78;;;13.36;100.00
9784;BME280;4931;44.874;-1.092;2023-05-20T00:03:16;101684.44;;;13.29;100.00
9784;BME280;4931;44.874;-1.092;2023-05-20T00:05:41;101683.31;;;13.30;100.00
9784;BME280;4931;44.874;-1.092;2023-05-20T00:08:07;101683.59;;;13.28;100.00
9784;BME280;4931;44.874;-1.092;2023-05-20T00:10:37;101677.56;;;13.21;100.00
9784;BME280;4931;44.874;-1.092;2023-05-20T00:13:03;101675.34;;;13.18;100.00
9784;BME280;4931;44.874;-1.092;2023-05-20T00:15:29;101675.09;;;13.20;100.00
9784;BME280;4931;44.874;-1.092;2023-05-20T00:17:56;101674.50;;;13.12;100.00
9784;BME280;4931;44.874;-1.092;2023-05-20T00:20:22;101670.66;;;13.19;100.00
9784;BME280;4931;44.874;-1.092;2023-05-20T00:22:47;101670.66;;;13.14;100.00
9784;BME280;4931;44.874;-1.092;2023-05-20T00:25:13;101672.31;;;13.15;100.00
9784;BME280;4931;44.874;-1.092;2023-05-20T00:27:42;101666.81;;;13.15;100.00
9784;BME280;4931;44.874;-1.092;2023-05-20T00:30:08;101668.19;;;13.12;100.00
9784;BME280;4931;44.874;-1.092;2023-05-20T00:32:33;101662.41;;;13.08;100.00
9784;BME280;4931;44.874;-1.092;2023-05-20T00:35:00;101659.91;;;13.07;100.00
9784;BME280;4931;44.874;-1.092;2023-05-20T00:37:26;101661.28;;;13.04;100.00
9784;BME280;4931;44.874;-1.092;2023-05-20T00:39:52;101658.53;;;13.04;100.00
9784;BME280;4931;44.874;-1.092;2023-05-20T00:42:24;101658.53;;;12.99;100.00
9784;BME280;4931;44.874;-1.092;2023-05-20T00:44:50;101647.53;;;12.99;100.00
9784;BME280;4931;44.874;-1.092;2023-05-20T00:47:17;101650.28;;;12.99;100.00
9784;BME280;4931;44.874;-1.092;2023-05-20T00:49:44;101644.75;;;12.94;100.00
9784;BME280;4931;44.874;-1.092;2023-05-20T00:52:10;101643.09;;;12.88;100.00
9784;BME280;4931;44.874;-1.092;2023-05-20T00:54:35;101644.19;;;12.82;100.00
9784;BME280;4931;44.874;-1.092;2023-05-20T00:57:03;101638.69;;;12.76;100.00
9784;BME280;4931;44.874;-1.092;2023-05-20T00:59:30;101649.16;;;12.79;100.00
9784;BME280;4931;44.874;-1.092;2023-05-20T01:01:56;101639.22;;;12.73;100.00
9784;BME280;4931;44.874;-1.092;2023-05-20T01:04:21;101637.56;;;12.72;100.00
9784;BME280;4931;44.874;-1.092;2023-05-20T01:06:47;101632.31;;;12.66;100.00
9784;BME280;4931;44.874;-1.092;2023-05-20T01:09:13;101630.41;;;12.61;100.00
9784;BME280;4931;44.874;-1.092;2023-05-20T01:11:55;101639.75;;;12.60;100.00
9784;BME280;4931;44.874;-1.092;2023-05-20T01:14:26;101623.22;;;12.55;100.00
9784;BME280;4931;44.874;-1.092;2023-05-20T01:16:54;101625.41;;;12.58;100.00
9784;BME280;4931;44.874;-1.092;2023-05-20T01:19:39;101627.88;;;12.44;100.00
9784;BME280;4931;44.874;-1.092;2023-05-20T01:22:08;101629.25;;;12.41;100.00
9784;BME280;4931;44.874;-1.092;2023-05-20T01:24:39;101621.81;;;12.42;100.00
9784;BME280;4931;44.874;-1.092;2023-05-20T01:27:05;101626.50;;;12.41;100.00
9784;BME280;4931;44.874;-1.092;2023-05-20T01:29:37;101621.53;;;12.38;100.00
9784;BME280;4931;44.874;-1.092;2023-05-20T01:32:11;101623.19;;;12.39;100.00
9784;BME280;4931;44.874;-1.092;2023-05-20T01:34:40;101614.66;;;12.36;100.00
9784;BME280;4931;44.874;-1.092;2023-05-20T01:37:07;101613.84;;;12.40;100.00
9784;BME280;4931;44.874;-1.092;2023-05-20T01:39:35;101609.97;;;12.36;100.00
9784;BME280;4931;44.874;-1.092;2023-05-20T01:42:03;101604.75;;;12.35;100.00
9784;BME280;4931;44.874;-1.092;2023-05-20T01:44:30;101603.91;;;12.34;100.00
9784;BME280;4931;44.874;-1.092;2023-05-20T01:46:55;101602.00;;;12.29;100.00
9784;BME280;4931;44.874;-1.092;2023-05-20T01:49:21;101599.78;;;12.32;100.00
9784;BME280;4931;44.874;-1.092;2023-05-20T01:51:46;101595.91;;;12.27;100.00
9784;BME280;4931;44.874;-1.092;2023-05-20T01:54:12;101594.53;;;12.25;100.00
9784;BME280;4931;44.874;-1.092;2023-05-20T01:56:37;101596.19;;;12.26;100.00
9784;BME280;4931;44.874;-1.092;2023-05-20T01:59:03;101588.78;;;12.21;100.00
9784;BME280;4931;44.874;-1.092;2023-05-20T02:01:28;101591.75;;;12.15;100.00
9784;BME280;4931;44.874;-1.092;2023-05-20T02:03:54;101588.16;;;12.04;100.00
9784;BME280;4931;44.874;-1.092;2023-05-20T02:06:19;101595.56;;;11.98;100.00
9784;BME280;4931;44.874;-1.092;2023-05-20T02:08:45;101592.81;;;12.03;100.00
9784;BME280;4931;44.874;-1.092;2023-05-20T02:11:10;101595.22;;;11.94;100.00
9784;BME280;4931;44.874;-1.092;2023-05-20T02:13:36;101587.81;;;11.90;100.00
9784;BME280;4931;44.874;-1.092;2023-05-20T02:16:01;101585.59;;;11.92;100.00
9784;BME280;4931;44.874;-1.092;2023-05-20T02:18:27;101593.31;;;11.90;100.00
9784;BME280;4931;44.874;-1.092;2023-05-20T02:20:52;101588.91;;;11.94;100.00
9784;BME280;4931;44.874;-1.092;2023-05-20T02:23:18;101595.47;;;11.88;100.00
9784;BME280;4931;44.874;-1.092;2023-05-20T02:25:44;101591.88;;;11.82;100.00
9784;BME280;4931;44.874;-1.092;2023-05-20T02:28:09;101586.13;;;11.89;100.00
9784;BME280;4931;44.874;-1.092;2023-05-20T02:30:38;101592.69;;;11.83;100.00
9784;BME280;4931;44.874;-1.092;2023-05-20T02:33:04;101577.28;;;11.76;100.00
9784;BME280;4931;44.874;-1.092;2023-05-20T02:35:29;101580.28;;;11.75;100.00
9784;BME280;4931;44.874;-1.092;2023-05-20T02:37:55;101570.13;;;11.70;100.00
9784;BME280;4931;44.874;-1.092;2023-05-20T02:40:20;101570.09;;;11.65;100.00
9784;BME280;4931;44.874;-1.092;2023-05-20T02:42:47;101568.66;;;11.52;100.00
9784;BME280;4931;44.874;-1.092;2023-05-20T02:45:12;101568.63;;;11.47;100.00
9784;BME280;4931;44.874;-1.092;2023-05-20T02:47:38;101571.03;;;11.38;100.00
9784;BME280;4931;44.874;-1.092;2023-05-20T02:50:03;101566.09;;;11.40;100.00
9784;BME280;4931;44.874;-1.092;2023-05-20T02:52:29;101564.19;;;11.41;100.00
9784;BME280;4931;44.874;-1.092;2023-05-20T02:54:54;101568.00;;;11.40;100.00
9784;BME280;4931;44.874;-1.092;2023-05-20T02:57:20;101560.59;;;11.35;100.00
9784;BME280;4931;44.874;-1.092;2023-05-20T02:59:46;101565.50;;;11.33;100.00
9784;BME280;4931;44.874;-1.092;2023-05-20T03:02:12;101569.94;;;11.39;100.00
9784;BME280;4931;44.874;-1.092;2023-05-20T03:04:37;101570.22;;;11.38;100.00
9784;BME280;4931;44.874;-1.092;2023-05-20T03:07:06;101560.53;;;11.30;100.00
9784;BME280;4931;44.874;-1.092;2023-05-20T03:09:32;101554.78;;;11.32;100.00
9784;BME280;4931;44.874;-1.092;2023-05-20T03:11:57;101553.13;;;11.30;100.00
9784;BME280;4931;44.874;-1.092;2023-05-20T03:14:23;101563.28;;;11.30;100.00
9784;BME280;4931;44.874;-1.092;2023-05-20T03:16:48;101557.22;;;11.23;100.00
9784;BME280;4931;44.874;-1.092;2023-05-20T03:19:14;101562.19;;;11.26;100.00
9784;BME280;4931;44.874;-1.092;2023-05-20T03:21:40;101564.88;;;11.21;100.00
9784;BME280;4931;44.874;-1.092;2023-05-20T03:24:08;101553.59;;;11.17;100.00
9784;BME280;4931;44.874;-1.092;2023-05-20T03:26:33;101551.63;;;11.07;100.00
9784;BME280;4931;44.874;-1.092;2023-05-20T03:29:02;101557.16;;;11.12;100.00
9784;BME280;4931;44.874;-1.092;2023-05-20T03:31:27;101548.34;;;11.10;100.00
9784;BME280;4931;44.874;-1.092;2023-05-20T03:33:53;101556.31;;;11.12;100.00
9784;BME280;4931;44.874;-1.092;2023-05-20T03:36:19;101543.69;;;11.11;100.00
9784;BME280;4931;44.874;-1.092;2023-05-20T03:38:44;101544.50;;;11.11;100.00
9784;BME280;4931;44.874;-1.092;2023-05-20T03:41:10;101542.06;;;11.15;100.00
9784;BME280;4931;44.874;-1.092;2023-05-20T03:43:35;101548.41;;;11.21;100.00
9784;BME280;4931;44.874;-1.092;2023-05-20T03:46:01;101540.75;;;11.23;100.00
9784;BME280;4931;44.874;-1.092;2023-05-20T03:48:26;101543.72;;;11.21;100.00
9784;BME280;4931;44.874;-1.092;2023-05-20T03:50:52;101543.50;;;11.28;100.00
9784;BME280;4931;44.874;-1.092;2023-05-20T03:53:17;101543.97;;;11.15;100.00
9784;BME280;4931;44.874;-1.092;2023-05-20T03:55:44;101544.50;;;11.11;100.00
9784;BME280;4931;44.874;-1.092;2023-05-20T03:58:09;101547.78;;;11.13;100.00
9784;BME280;4931;44.874;-1.092;2023-05-20T04:00:35;101548.84;;;11.02;100.00
9784;BME280;4931;44.874;-1.092;2023-05-20T04:03:01;101549.41;;;11.09;100.00
9784;BME280;4931;44.874;-1.092;2023-05-20T04:05:27;101547.78;;;11.08;100.00
9784;BME280;4931;44.874;-1.092;2023-05-20T04:07:52;101545.84;;;11.09;100.00
9784;BME280;4931;44.874;-1.092;2023-05-20T04:10:18;101548.31;;;11.05;100.00
9784;BME280;4931;44.874;-1.092;2023-05-20T04:12:44;101540.06;;;11.05;100.00
9784;BME280;4931;44.874;-1.092;2023-05-20T04:15:11;101545.03;;;11.08;100.00
9784;BME280;4931;44.874;-1.092;2023-05-20T04:17:37;101542.34;;;11.19;100.00
9784;BME280;4931;44.874;-1.092;2023-05-20T04:20:06;101540.09;;;11.10;100.00
9784;BME280;4931;44.874;-1.092;2023-05-20T04:22:33;101539.75;;;11.02;100.00
9784;BME280;4931;44.874;-1.092;2023-05-20T04:24:59;101537.59;;;11.04;100.00
9784;BME280;4931;44.874;-1.092;2023-05-20T04:27:25;101532.72;;;11.16;100.00
9784;BME280;4931;44.874;-1.092;2023-05-20T04:29:51;101536.22;;;11.06;100.00
9784;BME280;4931;44.874;-1.092;2023-05-20T04:32:18;101537.28;;;11.00;100.00
9784;BME280;4931;44.874;-1.092;2023-05-20T04:34:44;101538.94;;;11.01;100.00
9784;BME280;4931;44.874;-1.092;2023-05-20T04:37:11;101544.97;;;10.98;100.00
9784;BME280;4931;44.874;-1.092;2023-05-20T04:39:37;101538.13;;;11.01;100.00
9784;BME280;4931;44.874;-1.092;2023-05-20T04:42:03;101540.22;;;10.88;100.00
9784;BME280;4931;44.874;-1.092;2023-05-20T04:44:29;101530.31;;;10.82;100.00
9784;BME280;4931;44.874;-1.092;2023-05-20T04:46:55;101526.09;;;10.69;100.00
9784;BME280;4931;44.874;-1.092;2023-05-20T04:49:24;101526.69;;;10.76;100.00
9784;BME280;4931;44.874;-1.092;2023-05-20T04:51:55;101526.16;;;10.79;100.00
9784;BME280;4931;44.874;-1.092;2023-05-20T04:54:21;101533.38;;;10.91;100.00
9784;BME280;4931;44.874;-1.092;2023-05-20T04:56:46;101528.50;;;10.98;100.00
9784;BME280;4931;44.874;-1.092;2023-05-20T04:59:12;101523.75;;;10.88;100.00
9784;BME280;4931;44.874;-1.092;2023-05-20T05:01:37;101520.69;;;10.79;100.00
9784;BME280;4931;44.874;-1.092;2023-05-20T05:04:03;101514.56;;;10.72;100.00
9784;BME280;4931;44.874;-1.092;2023-05-20T05:06:29;101521.81;;;10.84;100.00
9784;BME280;4931;44.874;-1.092;2023-05-20T05:08:55;101514.13;;;10.86;100.00
9784;BME280;4931;44.874;-1.092;2023-05-20T05:11:20;101519.09;;;10.89;100.00
9784;BME280;4931;44.874;-1.092;2023-05-20T05:13:46;101516.41;;;10.94;100.00
9784;BME280;4931;44.874;-1.092;2023-05-20T05:16:11;101518.78;;;10.85;100.00
9784;BME280;4931;44.874;-1.092;2023-05-20T05:18:37;101521.56;;;10.90;100.00
9784;BME280;4931;44.874;-1.092;2023-05-20T05:21:04;101514.66;;;10.83;100.00
9784;BME280;4931;44.874;-1.092;2023-05-20T05:23:31;101519.09;;;10.89;100.00
9784;BME280;4931;44.874;-1.092;2023-05-20T05:25:57;101511.19;;;10.98;100.00
9784;BME280;4931;44.874;-1.092;2023-05-20T05:28:23;101512.53;;;10.95;100.00
9784;BME280;4931;44.874;-1.092;2023-05-20T05:30:48;101509.31;;;11.03;100.00
9784;BME280;4931;44.874;-1.092;2023-05-20T05:33:14;101514.63;;;11.20;100.00
9784;BME280;4931;44.874;-1.092;2023-05-20T05:35:41;101510.28;;;11.29;100.00
9784;BME280;4931;44.874;-1.092;2023-05-20T05:38:07;101511.06;;;11.25;100.00
9784;BME280;4931;44.874;-1.092;2023-05-20T05:40:33;101518.56;;;11.40;100.00
9784;BME280;4931;44.874;-1.092;2023-05-20T05:42:58;101508.47;;;11.51;100.00
9784;BME280;4931;44.874;-1.092;2023-05-20T05:45:24;101519.56;;;11.76;100.00
9784;BME280;4931;44.874;-1.092;2023-05-20T05:47:49;101510.81;;;11.90;100.00
9784;BME280;4931;44.874;-1.092;2023-05-20T05:50:15;101515.84;;;12.03;100.00
9784;BME280;4931;44.874;-1.092;2023-05-20T05:52:40;101510.34;;;12.14;100.00
9784;BME280;4931;44.874;-1.092;2023-05-20T05:55:07;101504.31;;;12.17;100.00
9784;BME280;4931;44.874;-1.092;2023-05-20T05:57:33;101510.94;;;12.31;100.00
9784;BME280;4931;44.874;-1.092;2023-05-20T05:59:58;101498.81;;;12.53;100.00
9784;BME280;4931;44.874;-1.092;2023-05-20T06:02:24;101501.56;;;12.73;100.00
9784;BME280;4931;44.874;-1.092;2023-05-20T06:04:49;101490.84;;;12.77;100.00
9784;BME280;4931;44.874;-1.092;2023-05-20T06:07:15;101488.91;;;12.77;100.00
9784;BME280;4931;44.874;-1.092;2023-05-20T06:09:40;101497.44;;;12.91;100.00
9784;BME280;4931;44.874;-1.092;2023-05-20T06:12:06;101491.94;;;12.91;100.00
9784;BME280;4931;44.874;-1.092;2023-05-20T06:14:32;101502.63;;;13.19;100.00
9784;BME280;4931;44.874;-1.092;2023-05-20T06:16:57;101490.44;;;13.30;100.00
9784;BME280;4931;44.874;-1.092;2023-05-20T06:19:22;101497.59;;;13.47;100.00
9784;BME280;4931;44.874;-1.092;2023-05-20T06:21:48;101488.75;;;13.50;100.00
9784;BME280;4931;44.874;-1.092;2023-05-20T06:24:13;101488.66;;;13.70;100.00
9784;BME280;4931;44.874;-1.092;2023-05-20T06:26:40;101484.84;;;13.66;100.00
9784;BME280;4931;44.874;-1.092;2023-05-20T06:29:05;101486.50;;;13.62;100.00
9784;BME280;4931;44.874;-1.092;2023-05-20T06:31:30;101478.00;;;14.03;100.00
9784;BME280;4931;44.874;-1.092;2023-05-20T06:33:56;101485.63;;;14.17;100.00
9784;BME280;4931;44.874;-1.092;2023-05-20T06:36:21;101479.94;;;14.42;100.00
9784;BME280;4931;44.874;-1.092;2023-05-20T06:38:47;101488.44;;;14.51;100.00
9784;BME280;4931;44.874;-1.092;2023-05-20T06:41:12;101482.78;;;14.32;100.00
9784;BME280;4931;44.874;-1.092;2023-05-20T06:43:38;101477.53;;;14.31;100.00
9784;BME280;4931;44.874;-1.092;2023-05-20T06:46:05;101482.66;;;14.48;100.00
9784;BME280;4931;44.874;-1.092;2023-05-20T06:48:31;101485.44;;;14.42;100.00
9784;BME280;4931;44.874;-1.092;2023-05-20T06:50:59;101482.75;;;15.01;100.00
9784;BME280;4931;44.874;-1.092;2023-05-20T06:53:25;101479.38;;;15.04;100.00
9784;BME280;4931;44.874;-1.092;2023-05-20T06:55:52;101483.00;;;15.29;100.00
9784;BME280;4931;44.874;-1.092;2023-05-20T06:58:20;101482.94;;;15.34;100.00
9784;BME280;4931;44.874;-1.092;2023-05-20T07:00:46;101479.56;;;15.37;100.00
9784;BME280;4931;44.874;-1.092;2023-05-20T07:03:11;101481.75;;;15.40;100.00
9784;BME280;4931;44.874;-1.092;2023-05-20T07:05:37;101489.41;;;15.68;100.00
9784;BME280;4931;44.874;-1.092;2023-05-20T07:08:02;101484.06;;;15.76;100.00
9784;BME280;4931;44.874;-1.092;2023-05-20T07:10:28;101487.38;;;16.17;100.00
9784;BME280;4931;44.874;-1.092;2023-05-20T07:12:54;101491.09;;;16.45;100.00
9784;BME280;4931;44.874;-1.092;2023-05-20T07:15:19;101485.63;;;16.40;100.00
9784;BME280;4931;44.874;-1.092;2023-05-20T07:17:45;101497.41;;;16.65;100.00
9784;BME280;4931;44.874;-1.092;2023-05-20T07:20:10;101488.03;;;16.80;100.00
9784;BME280;4931;44.874;-1.092;2023-05-20T07:22:36;101493.97;;;16.87;100.00
9784;BME280;4931;44.874;-1.092;2023-05-20T07:25:02;101482.91;;;16.87;100.00
9784;BME280;4931;44.874;-1.092;2023-05-20T07:27:27;101483.16;;;17.04;100.00
9784;BME280;4931;44.874;-1.092;2023-05-20T07:29:53;101483.47;;;17.17;100.00
9784;BME280;4931;44.874;-1.092;2023-05-20T07:32:19;101485.00;;;17.09;100.00
9784;BME280;4931;44.874;-1.092;2023-05-20T07:34:44;101492.41;;;17.41;100.00
9784;BME280;4931;44.874;-1.092;2023-05-20T07:37:10;101487.25;;;17.49;100.00
9784;BME280;4931;44.874;-1.092;2023-05-20T07:39:37;101492.50;;;17.50;100.00
9784;BME280;4931;44.874;-1.092;2023-05-20T07:42:03;101477.88;;;17.86;100.00
9784;BME280;4931;44.874;-1.092;2023-05-20T07:44:28;101482.13;;;17.56;100.00
9784;BME280;4931;44.874;-1.092;2023-05-20T07:46:54;101488.41;;;17.20;100.00
9784;BME280;4931;44.874;-1.092;2023-05-20T07:49:20;101482.47;;;16.80;100.00
9784;BME280;4931;44.874;-1.092;2023-05-20T07:51:46;101481.00;;;16.68;100.00
9784;BME280;4931;44.874;-1.092;2023-05-20T07:54:11;101484.66;;;16.50;100.00
9784;BME280;4931;44.874;-1.092;2023-05-20T07:56:37;101481.09;;;16.30;100.00
9784;BME280;4931;44.874;-1.092;2023-05-20T07:59:02;101476.31;;;16.17;100.00
9784;BME280;4931;44.874;-1.092;2023-05-20T08:01:28;101492.59;;;15.99;100.00
9784;BME280;4931;44.874;-1.092;2023-05-20T08:03:54;101483.34;;;15.90;100.00
9784;BME280;4931;44.874;-1.092;2023-05-20T08:06:20;101483.94;;;15.87;100.00
9784;BME280;4931;44.874;-1.092;2023-05-20T08:08:46;101485.00;;;15.91;100.00
9784;BME280;4931;44.874;-1.092;2023-05-20T08:11:12;101485.66;;;16.02;100.00
9784;BME280;4931;44.874;-1.092;2023-05-20T08:13:37;101480.94;;;15.83;100.00
9784;BME280;4931;44.874;-1.092;2023-05-20T08:16:03;101487.63;;;15.77;100.00
9784;BME280;4931;44.874;-1.092;2023-05-20T08:18:30;101482.03;;;15.63;100.00
9784;BME280;4931;44.874;-1.092;2023-05-20T08:20:57;101486.44;;;15.64;100.00
9784;BME280;4931;44.874;-1.092;2023-05-20T08:23:23;101476.13;;;15.46;100.00
9784;BME280;4931;44.874;-1.092;2023-05-20T08:25:49;101470.69;;;15.40;100.00
9784;BME280;4931;44.874;-1.092;2023-05-20T08:28:14;101474.44;;;15.50;100.00
9784;BME280;4931;44.874;-1.092;2023-05-20T08:30:40;101483.50;;;15.55;100.00
9784;BME280;4931;44.874;-1.092;2023-05-20T08:33:06;101477.16;;;15.55;100.00
9784;BME280;4931;44.874;-1.092;2023-05-20T08:35:31;101469.50;;;15.47;100.00
9784;BME280;4931;44.874;-1.092;2023-05-20T08:37:57;101461.75;;;15.49;100.00
9784;BME280;4931;44.874;-1.092;2023-05-20T08:40:23;101465.00;;;15.75;100.00
9784;BME280;4931;44.874;-1.092;2023-05-20T08:42:50;101464.50;;;15.49;100.00
9784;BME280;4931;44.874;-1.092;2023-05-20T08:45:20;101473.25;;;15.56;100.00
9784;BME280;4931;44.874;-1.092;2023-05-20T08:47:50;101466.78;;;15.41;100.00
9784;BME280;4931;44.874;-1.092;2023-05-20T08:50:16;101476.06;;;15.51;100.00
9784;BME280;4931;44.874;-1.092;2023-05-20T08:52:43;101472.50;;;15.50;100.00
9784;BME280;4931;44.874;-1.092;2023-05-20T08:55:17;101471.38;;;15.51;100.00
9784;BME280;4931;44.874;-1.092;2023-05-20T08:57:49;101472.88;;;15.63;100.00
9784;BME280;4931;44.874;-1.092;2023-05-20T09:00:15;101475.72;;;15.57;100.00
9784;BME280;4931;44.874;-1.092;2023-05-20T09:02:42;101472.19;;;15.52;100.00
9784;BME280;4931;44.874;-1.092;2023-05-20T09:05:09;101469.38;;;15.57;100.00
9784;BME280;4931;44.874;-1.092;2023-05-20T09:07:37;101473.78;;;15.58;100.00
9784;BME280;4931;44.874;-1.092;2023-05-20T09:10:05;101469.44;;;15.52;100.00
9784;BME280;4931;44.874;-1.092;2023-05-20T09:12:30;101466.78;;;15.41;100.00
9784;BME280;4931;44.874;-1.092;2023-05-20T09:14:56;101474.22;;;15.46;100.00
9784;BME280;4931;44.874;-1.092;2023-05-20T09:17:22;101469.63;;;15.36;100.00
9784;BME280;4931;44.874;-1.092;2023-05-20T09:19:52;101465.88;;;15.27;100.00
9784;BME280;4931;44.874;-1.092;2023-05-20T09:22:24;101462.97;;;15.37;100.00
9784;BME280;4931;44.874;-1.092;2023-05-20T09:24:50;101463.28;;;15.36;100.00
9784;BME280;4931;44.874;-1.092;2023-05-20T09:27:17;101455.59;;;15.33;100.00
9784;BME280;4931;44.874;-1.092;2023-05-20T09:29:42;101463.97;;;15.47;100.00
9784;BME280;4931;44.874;-1.092;2023-05-20T09:32:09;101461.19;;;15.47;100.00
9784;BME280;4931;44.874;-1.092;2023-05-20T09:34:36;101455.03;;;15.55;100.00
9784;BME280;4931;44.874;-1.092;2023-05-20T09:37:02;101462.31;;;15.46;100.00
9784;BME280;4931;44.874;-1.092;2023-05-20T09:39:31;101458.97;;;15.49;100.00
9784;BME280;4931;44.874;-1.092;2023-05-20T09:42:05;101461.00;;;15.62;100.00
9784;BME280;4931;44.874;-1.092;2023-05-20T09:44:32;101460.41;;;15.65;100.00
9784;BME280;4931;44.874;-1.092;2023-05-20T09:46:59;101468.63;;;15.70;100.00
9784;BME280;4931;44.874;-1.092;2023-05-20T09:49:26;101461.63;;;15.59;100.00
9784;BME280;4931;44.874;-1.092;2023-05-20T09:51:53;101468.44;;;15.67;100.00
9784;BME280;4931;44.874;-1.092;2023-05-20T09:54:20;101463.47;;;15.64;100.00
9784;BME280;4931;44.874;-1.092;2023-05-20T09:56:46;101462.81;;;15.72;100.00
9784;BME280;4931;44.874;-1.092;2023-05-20T09:59:14;101452.03;;;15.70;100.00
9784;BME280;4931;44.874;-1.092;2023-05-20T10:01:43;101463.94;;;15.71;100.00
9784;BME280;4931;44.874;-1.092;2023-05-20T10:04:10;101450.63;;;15.73;100.00
9784;BME280;4931;44.874;-1.092;2023-05-20T10:12:38;101456.13;;;15.97;100.00
9784;BME280;4931;44.874;-1.092;2023-05-20T10:15:31;101455.75;;;15.85;100.00
9784;BME280;4931;44.874;-1.092;2023-05-20T10:20:48;101448.63;;;15.79;100.00
9784;BME280;4931;44.874;-1.092;2023-05-20T10:23:27;101448.78;;;15.68;100.00
9784;BME280;4931;44.874;-1.092;2023-05-20T10:25:55;101446.56;;;15.65;100.00
9784;BME280;4931;44.874;-1.092;2023-05-20T10:28:40;101452.28;;;15.74;100.00
9784;BME280;4931;44.874;-1.092;2023-05-20T10:31:25;101447.78;;;15.59;100.00
9784;BME280;4931;44.874;-1.092;2023-05-20T10:33:52;101440.44;;;15.49;100.00
9784;BME280;4931;44.874;-1.092;2023-05-20T10:36:31;101443.25;;;15.68;100.00
9784;BME280;4931;44.874;-1.092;2023-05-20T10:38:58;101440.72;;;15.91;100.00
9784;BME280;4931;44.874;-1.092;2023-05-20T10:41:26;101441.34;;;15.88;100.00
9784;BME280;4931;44.874;-1.092;2023-05-20T10:44:03;101444.41;;;15.62;100.00
9784;BME280;4931;44.874;-1.092;2023-05-20T10:46:30;101445.28;;;15.57;100.00
9784;BME280;4931;44.874;-1.092;2023-05-20T10:48:56;101447.72;;;15.64;100.00
9784;BME280;4931;44.874;-1.092;2023-05-20T10:51:22;101435.59;;;15.60;100.00
9784;BME280;4931;44.874;-1.092;2023-05-20T10:53:51;101434.75;;;15.84;100.00
9784;BME280;4931;44.874;-1.092;2023-05-20T10:56:19;101431.88;;;15.89;100.00
9784;BME280;4931;44.874;-1.092;2023-05-20T10:58:45;101440.28;;;15.84;100.00
9784;BME280;4931;44.874;-1.092;2023-05-20T11:01:11;101429.66;;;15.91;100.00
9784;BME280;4931;44.874;-1.092;2023-05-20T11:03:39;101425.81;;;16.06;100.00
9784;BME280;4931;44.874;-1.092;2023-05-20T11:06:13;101424.22;;;16.19;100.00
9784;BME280;4931;44.874;-1.092;2023-05-20T11:08:38;101426.50;;;16.17;100.00
9784;BME280;4931;44.874;-1.092;2023-05-20T11:11:04;101418.13;;;16.22;100.00
9784;BME280;4931;44.874;-1.092;2023-05-20T11:13:30;101421.38;;;16.24;100.00
9784;BME280;4931;44.874;-1.092;2023-05-20T11:15:56;101424.69;;;16.26;100.00
9784;BME280;4931;44.874;-1.092;2023-05-20T11:18:26;101420.66;;;16.51;100.00
9784;BME280;4931;44.874;-1.092;2023-05-20T11:20:54;101420.25;;;16.58;100.00
9784;BME280;4931;44.874;-1.092;2023-05-20T11:23:20;101404.84;;;16.52;100.00
9784;BME280;4931;44.874;-1.092;2023-05-20T11:25:49;101410.72;;;16.64;100.00
9784;BME280;4931;44.874;-1.092;2023-05-20T11:28:15;101409.16;;;16.58;100.00
9784;BME280;4931;44.874;-1.092;2023-05-20T11:30:43;101412.56;;;16.69;100.00
9784;BME280;4931;44.874;-1.092;2023-05-20T11:33:11;101407.19;;;18.06;100.00
9784;BME280;4931;44.874;-1.092;2023-05-20T11:38:11;101409.91;;;16.77;100.00
9784;BME280;4931;44.874;-1.092;2023-05-20T11:40:37;101410.84;;;16.87;100.00
9784;BME280;4931;44.874;-1.092;2023-05-20T11:43:10;101410.22;;;16.76;100.00
9784;BME280;4931;44.874;-1.092;2023-05-20T11:45:41;101405.88;;;16.56;100.00
9784;BME280;4931;44.874;-1.092;2023-05-20T11:48:07;101409.69;;;16.60;100.00
9784;BME280;4931;44.874;-1.092;2023-05-20T11:50:38;101407.69;;;16.80;100.00
9784;BME280;4931;44.874;-1.092;2023-05-20T11:53:09;101397.09;;;16.82;100.00
9784;BME280;4931;44.874;-1.092;2023-05-20T11:58:14;101402.88;;;16.99;100.00
9784;BME280;4931;44.874;-1.092;2023-05-20T12:00:40;101404.94;;;16.93;100.00
9784;BME280;4931;44.874;-1.092;2023-05-20T12:03:06;101397.84;;;17.01;100.00
9784;BME280;4931;44.874;-1.092;2023-05-20T12:05:31;101395.91;;;17.16;100.00
9784;BME280;4931;44.874;-1.092;2023-05-20T12:07:57;101396.63;;;17.07;100.00
9784;BME280;4931;44.874;-1.092;2023-05-20T12:10:22;101386.13;;;17.32;100.00
9784;BME280;4931;44.874;-1.092;2023-05-20T12:12:48;101378.19;;;17.53;100.00
9784;BME280;4931;44.874;-1.092;2023-05-20T12:15:13;101385.44;;;17.63;100.00
9784;BME280;4931;44.874;-1.092;2023-05-20T12:17:50;101377.50;;;17.70;100.00
9784;BME280;4931;44.874;-1.092;2023-05-20T12:20:16;101388.34;;;17.81;100.00
9784;BME280;4931;44.874;-1.092;2023-05-20T12:22:45;101378.97;;;17.90;100.00
9784;BME280;4931;44.874;-1.092;2023-05-20T12:25:12;101378.56;;;17.97;100.00
9784;BME280;4931;44.874;-1.092;2023-05-20T12:27:40;101379.56;;;18.24;100.00
9784;BME280;4931;44.874;-1.092;2023-05-20T12:30:06;101375.28;;;18.18;100.00
9784;BME280;4931;44.874;-1.092;2023-05-20T12:32:34;101380.59;;;18.28;100.00
9784;BME280;4931;44.874;-1.092;2023-05-20T12:35:00;101367.28;;;18.48;100.00
9784;BME280;4931;44.874;-1.092;2023-05-20T12:37:25;101361.09;;;18.51;100.00
9784;BME280;4931;44.874;-1.092;2023-05-20T12:39:51;101368.88;;;18.40;100.00
9784;BME280;4931;44.874;-1.092;2023-05-20T12:42:16;101374.00;;;18.55;100.00
9784;BME280;4931;44.874;-1.092;2023-05-20T12:44:42;101370.75;;;18.53;100.00
9784;BME280;4931;44.874;-1.092;2023-05-20T12:47:08;101365.28;;;18.39;100.00
9784;BME280;4931;44.874;-1.092;2023-05-20T12:49:33;101362.28;;;18.67;100.00
9784;BME280;4931;44.874;-1.092;2023-05-20T12:51:59;101360.03;;;18.69;100.00
9784;BME280;4931;44.874;-1.092;2023-05-20T12:54:24;101361.63;;;18.62;100.00
9784;BME280;4931;44.874;-1.092;2023-05-20T12:56:55;101361.75;;;18.56;100.00
9784;BME280;4931;44.874;-1.092;2023-05-20T12:59:20;101351.97;;;18.59;100.00
9784;BME280;4931;44.874;-1.092;2023-05-20T13:01:47;101353.66;;;18.78;100.00